Time;durP1;ratioP1;P1;durP2;ratioP2;P2;SDS_P1;SDS_P2;PMS_P1;PMS_P2;Temp;Humidity;BMP_temperature;BMP_pressure;BME280_temperature;BME280_humidity;BME280_pressure;Samples;Min_cycle;Max_cycle;Signal;HPM_P1;HPM_P2
2024/02/02 00:00:17;;;;;;;8.63;2.80;;;4.80;99.90;;;;;;5044737;28;20545;-60
2024/02/02 00:02:43;;;;;;;14.07;4.23;;;4.90;99.90;;;;;;5043986;28;20825;-60
2024/02/02 00:05:09;;;;;;;15.23;3.63;;;4.80;99.90;;;;;;5025952;28;20474;-60
2024/02/02 00:07:35;;;;;;;7.47;3.10;;;4.80;99.90;;;;;;5026639;28;20438;-60
2024/02/02 00:10:00;;;;;;;10.10;2.60;;;4.90;99.90;;;;;;5042369;28;20180;-60
2024/02/02 00:12:27;;;;;;;8.23;4.30;;;4.90;99.90;;;;;;5046262;28;20183;-60
2024/02/02 00:14:52;;;;;;;10.03;4.00;;;5.00;99.90;;;;;;5043181;28;20770;-60
2024/02/02 00:17:19;;;;;;;10.23;2.80;;;5.00;99.90;;;;;;5044937;28;20510;-60
2024/02/02 00:19:45;;;;;;;19.20;4.87;;;5.00;99.90;;;;;;5047623;28;20988;-59
2024/02/02 00:22:11;;;;;;;3.23;2.43;;;5.00;99.90;;;;;;5041679;28;20440;-60
2024/02/02 00:24:37;;;;;;;14.93;5.63;;;5.00;99.90;;;;;;5042773;28;20900;-60
2024/02/02 00:27:03;;;;;;;17.13;3.87;;;5.00;99.90;;;;;;5043901;28;20434;-60
2024/02/02 00:29:28;;;;;;;14.57;3.60;;;5.10;99.90;;;;;;5044917;28;20189;-60
2024/02/02 00:31:54;;;;;;;13.60;4.47;;;5.10;99.90;;;;;;5043259;28;20184;-60
2024/02/02 00:34:20;;;;;;;13.77;3.70;;;5.00;99.90;;;;;;5042083;28;20247;-59
2024/02/02 00:36:45;;;;;;;14.27;3.77;;;5.00;99.90;;;;;;5044170;28;20233;-60
2024/02/02 00:39:11;;;;;;;10.17;2.80;;;5.00;99.90;;;;;;5043028;28;20197;-60
2024/02/02 00:41:37;;;;;;;18.30;3.50;;;4.90;99.90;;;;;;5042750;28;20263;-59
2024/02/02 00:44:04;;;;;;;8.20;3.20;;;4.90;99.90;;;;;;5046521;28;20523;-59
2024/02/02 00:46:29;;;;;;;14.30;3.13;;;4.90;99.90;;;;;;5043941;28;20548;-62
2024/02/02 00:48:55;;;;;;;18.33;3.63;;;4.90;99.90;;;;;;5024178;28;20512;-61
2024/02/02 00:51:21;;;;;;;26.50;4.53;;;4.80;99.90;;;;;;5043641;28;20188;-61
2024/02/02 00:53:47;;;;;;;15.33;4.27;;;4.80;99.90;;;;;;5044150;28;21115;-60
2024/02/02 00:56:13;;;;;;;15.10;4.13;;;4.70;99.90;;;;;;5045663;28;20235;-61
2024/02/02 00:58:38;;;;;;;20.43;5.70;;;4.70;99.90;;;;;;5046020;28;20183;-61
2024/02/02 01:01:04;;;;;;;12.10;3.10;;;4.70;99.90;;;;;;5045880;28;20462;-60
2024/02/02 01:03:33;;;;;;;14.57;3.07;;;4.60;99.90;;;;;;5043260;28;20176;-59
2024/02/02 01:05:59;;;;;;;11.30;4.10;;;4.70;99.90;;;;;;5044808;28;20206;-59
2024/02/02 01:08:25;;;;;;;15.43;3.23;;;4.70;99.90;;;;;;5045359;28;20425;-60
2024/02/02 01:10:51;;;;;;;10.47;3.87;;;4.70;99.90;;;;;;5043666;28;20429;-60
2024/02/02 01:13:16;;;;;;;8.30;3.60;;;4.70;99.90;;;;;;5044856;28;20277;-60
2024/02/02 01:15:42;;;;;;;12.47;4.20;;;4.70;99.90;;;;;;5044575;28;20207;-59
2024/02/02 01:18:08;;;;;;;7.80;3.20;;;4.70;99.90;;;;;;5045661;28;20703;-60
2024/02/02 01:20:34;;;;;;;8.13;3.53;;;4.70;99.90;;;;;;5042910;28;20706;-60
2024/02/02 01:23:00;;;;;;;17.80;3.77;;;4.70;99.90;;;;;;5045555;28;20728;-59
2024/02/02 01:25:29;;;;;;;8.30;3.57;;;4.70;99.90;;;;;;5045799;28;20445;-58
2024/02/02 01:27:55;;;;;;;13.40;5.00;;;4.70;99.90;;;;;;5043954;28;20922;-60
2024/02/02 01:30:23;;;;;;;9.33;2.93;;;4.70;99.90;;;;;;5048349;28;20841;-59
2024/02/02 01:32:51;;;;;;;11.93;3.33;;;4.70;99.90;;;;;;5030270;28;20433;-60
2024/02/02 01:35:17;;;;;;;11.53;3.67;;;4.80;99.90;;;;;;5048192;28;20525;-60
2024/02/02 01:37:43;;;;;;;17.43;3.67;;;4.80;99.90;;;;;;5044613;28;20518;-58
2024/02/02 01:40:10;;;;;;;21.07;4.63;;;4.80;99.90;;;;;;5046925;28;20218;-60
2024/02/02 01:42:35;;;;;;;10.40;4.07;;;4.80;99.90;;;;;;5026625;28;20418;-59
2024/02/02 01:45:01;;;;;;;12.10;4.30;;;4.80;99.90;;;;;;5045597;28;20967;-59
2024/02/02 01:47:27;;;;;;;18.50;3.63;;;4.90;99.90;;;;;;5028234;28;20175;-60
2024/02/02 01:49:52;;;;;;;18.93;5.07;;;4.80;99.90;;;;;;5041038;28;20172;-60
2024/02/02 01:52:18;;;;;;;23.97;4.40;;;4.90;99.90;;;;;;5046051;28;20175;-60
2024/02/02 01:54:45;;;;;;;16.50;3.97;;;4.80;99.90;;;;;;5044859;28;20657;-61
2024/02/02 01:57:10;;;;;;;18.13;3.97;;;4.90;99.90;;;;;;5043843;28;20485;-60
2024/02/02 01:59:36;;;;;;;12.03;3.87;;;4.90;99.90;;;;;;5044752;28;20460;-60
2024/02/02 02:02:03;;;;;;;11.23;4.63;;;4.90;99.90;;;;;;5041299;28;20362;-60
2024/02/02 02:04:29;;;;;;;15.97;4.37;;;4.90;99.90;;;;;;5042145;28;20722;-60
2024/02/02 02:06:55;;;;;;;14.83;5.03;;;4.90;99.90;;;;;;5021530;28;20513;-60
2024/02/02 02:09:20;;;;;;;12.37;4.23;;;4.90;99.90;;;;;;5043494;28;20183;-60
2024/02/02 02:11:46;;;;;;;11.97;3.30;;;4.90;99.90;;;;;;5042070;28;20414;-59
2024/02/02 02:14:12;;;;;;;12.97;4.13;;;4.90;99.90;;;;;;5041718;28;20282;-60
2024/02/02 02:16:38;;;;;;;13.43;4.97;;;5.00;99.90;;;;;;5040297;28;20218;-60
2024/02/02 02:19:04;;;;;;;9.80;3.40;;;5.00;99.90;;;;;;5040620;28;20274;-60
2024/02/02 02:21:30;;;;;;;20.93;3.83;;;5.00;99.90;;;;;;5042567;28;20414;-60
2024/02/02 02:23:56;;;;;;;14.53;5.87;;;5.00;99.90;;;;;;5045497;28;20506;-58
2024/02/02 02:26:22;;;;;;;14.43;4.00;;;5.00;99.90;;;;;;5043622;28;20210;-58
2024/02/02 02:28:48;;;;;;;16.73;5.83;;;5.00;99.90;;;;;;5044786;28;20217;-58
2024/02/02 02:31:16;;;;;;;9.90;3.80;;;5.00;99.90;;;;;;5049332;28;20647;-60
2024/02/02 02:33:43;;;;;;;13.93;4.00;;;5.00;99.90;;;;;;5046680;28;20511;-57
2024/02/02 02:36:11;;;;;;;28.10;4.23;;;5.00;99.90;;;;;;5047697;28;20442;-59
2024/02/02 02:38:37;;;;;;;21.63;4.27;;;5.00;99.90;;;;;;5044789;28;20496;-60
2024/02/02 02:41:03;;;;;;;14.80;3.73;;;5.00;99.90;;;;;;5046162;28;20931;-60
2024/02/02 02:43:30;;;;;;;18.00;4.73;;;5.00;99.90;;;;;;5046595;28;20476;-59
2024/02/02 02:45:56;;;;;;;8.63;3.67;;;5.00;99.90;;;;;;5046052;28;20235;-60
2024/02/02 02:48:22;;;;;;;10.70;3.90;;;5.10;99.90;;;;;;5045825;28;20421;-60
2024/02/02 02:50:48;;;;;;;11.40;4.27;;;5.10;99.90;;;;;;5045300;28;20418;-60
2024/02/02 02:53:14;;;;;;;16.90;5.90;;;5.10;99.90;;;;;;5047791;28;20433;-60
2024/02/02 02:55:40;;;;;;;13.27;3.87;;;5.20;99.90;;;;;;5047469;28;20204;-60
2024/02/02 02:58:06;;;;;;;16.40;4.33;;;5.10;99.90;;;;;;5047809;28;20420;-61
2024/02/02 03:00:32;;;;;;;11.70;4.43;;;5.20;99.90;;;;;;5046371;28;20351;-60
2024/02/02 03:02:58;;;;;;;9.50;3.73;;;5.20;99.90;;;;;;5048755;28;20241;-60
2024/02/02 03:05:26;;;;;;;6.40;3.80;;;5.10;99.90;;;;;;5047365;28;20459;-60
2024/02/02 03:07:52;;;;;;;9.70;3.53;;;5.10;99.90;;;;;;5043927;28;20433;-60
2024/02/02 03:10:17;;;;;;;7.97;4.23;;;5.10;99.90;;;;;;5045742;28;20426;-60
2024/02/02 03:12:43;;;;;;;15.87;4.77;;;5.20;99.90;;;;;;5045352;28;20273;-60
2024/02/02 03:15:09;;;;;;;12.60;4.60;;;5.10;99.90;;;;;;5046945;28;20235;-60
2024/02/02 03:17:35;;;;;;;11.03;4.37;;;5.20;99.90;;;;;;5046568;28;20187;-60
2024/02/02 03:20:00;;;;;;;21.20;4.40;;;5.10;99.90;;;;;;5049064;28;20458;-60
2024/02/02 03:22:26;;;;;;;11.00;3.90;;;5.20;99.90;;;;;;5047848;28;20210;-60
2024/02/02 03:24:52;;;;;;;8.57;3.70;;;5.10;99.90;;;;;;5048971;28;20195;-60
2024/02/02 03:27:20;;;;;;;14.13;4.57;;;5.10;99.90;;;;;;5049950;28;20176;-60
2024/02/02 03:29:46;;;;;;;18.73;5.03;;;5.10;99.90;;;;;;5029842;28;20234;-60
2024/02/02 03:32:11;;;;;;;13.33;4.77;;;5.10;99.90;;;;;;5045490;28;20429;-60
2024/02/02 03:34:37;;;;;;;21.77;6.40;;;5.20;99.90;;;;;;5047759;28;20648;-60
2024/02/02 03:37:03;;;;;;;11.83;4.87;;;5.10;99.90;;;;;;5047150;28;20671;-59
2024/02/02 03:39:28;;;;;;;19.40;5.90;;;5.10;99.90;;;;;;5045296;28;20208;-60
2024/02/02 03:41:54;;;;;;;6.60;4.23;;;5.10;99.90;;;;;;5048419;28;20241;-60
2024/02/02 03:44:20;;;;;;;11.60;4.10;;;5.00;99.90;;;;;;5046208;28;20186;-60
2024/02/02 03:46:45;;;;;;;10.30;4.63;;;5.00;99.90;;;;;;5027293;28;20577;-60
2024/02/02 03:49:11;;;;;;;17.47;5.73;;;5.10;99.90;;;;;;5047528;28;20187;-60
2024/02/02 03:51:37;;;;;;;18.67;5.83;;;5.10;99.90;;;;;;5047510;28;20184;-60
2024/02/02 03:54:03;;;;;;;14.97;5.27;;;5.10;99.90;;;;;;5046648;28;20306;-60
2024/02/02 03:56:29;;;;;;;12.83;4.90;;;5.10;99.90;;;;;;5045180;28;20206;-60
2024/02/02 03:58:54;;;;;;;14.63;6.20;;;5.00;99.90;;;;;;5047087;28;20425;-60
2024/02/02 04:01:20;;;;;;;15.13;5.97;;;5.00;99.90;;;;;;5046412;28;20179;-60
2024/02/02 04:03:46;;;;;;;15.73;6.83;;;5.00;99.90;;;;;;5029223;28;20634;-60
2024/02/02 04:06:11;;;;;;;16.10;6.40;;;5.10;99.90;;;;;;5048961;28;20434;-60
2024/02/02 04:08:37;;;;;;;16.63;6.30;;;5.10;99.90;;;;;;5045937;28;20188;-60
2024/02/02 04:11:03;;;;;;;10.83;5.73;;;5.10;99.90;;;;;;5045886;28;20187;-60
2024/02/02 04:13:28;;;;;;;14.47;5.10;;;5.00;99.90;;;;;;5047390;28;20184;-60
2024/02/02 04:15:54;;;;;;;22.67;5.33;;;5.00;99.90;;;;;;5046945;28;20207;-63
2024/02/02 04:18:20;;;;;;;15.57;5.67;;;5.00;99.90;;;;;;5046517;28;20175;-60
2024/02/02 04:20:45;;;;;;;16.83;5.53;;;5.00;99.90;;;;;;5043103;28;20203;-60
2024/02/02 04:23:11;;;;;;;13.20;4.93;;;5.10;99.90;;;;;;5043132;28;20181;-60
2024/02/02 04:25:36;;;;;;;17.63;6.00;;;5.00;99.90;;;;;;5045125;28;20198;-58
2024/02/02 04:28:04;;;;;;;14.47;5.37;;;5.00;99.90;;;;;;5043421;28;20172;-61
2024/02/02 04:30:30;;;;;;;11.63;5.37;;;5.00;99.90;;;;;;5043485;28;20194;-60
2024/02/02 04:32:56;;;;;;;22.30;6.57;;;5.10;99.90;;;;;;5043696;28;20417;-59
2024/02/02 04:35:21;;;;;;;13.33;5.97;;;5.10;99.90;;;;;;5044079;28;20454;-61
2024/02/02 04:37:48;;;;;;;13.60;5.10;;;5.00;99.90;;;;;;5043121;28;20187;-61
2024/02/02 04:40:13;;;;;;;15.27;5.10;;;5.00;99.90;;;;;;5045956;28;20859;-58
2024/02/02 04:42:39;;;;;;;13.37;5.30;;;5.00;99.90;;;;;;5044107;28;20651;-59
2024/02/02 04:45:05;;;;;;;13.93;5.80;;;5.00;99.90;;;;;;5042438;28;20218;-59
2024/02/02 04:47:31;;;;;;;14.37;5.57;;;5.00;99.90;;;;;;5044451;28;20184;-60
2024/02/02 04:49:56;;;;;;;25.07;8.30;;;5.00;99.90;;;;;;5043280;28;20420;-58
2024/02/02 04:52:22;;;;;;;20.97;5.30;;;5.00;99.90;;;;;;5043602;28;20258;-61
2024/02/02 04:54:48;;;;;;;11.53;5.40;;;5.00;99.90;;;;;;5042361;28;20182;-60
2024/02/02 04:57:15;;;;;;;14.37;6.10;;;4.90;99.90;;;;;;5042648;28;20674;-59
2024/02/02 04:59:40;;;;;;;8.43;4.70;;;5.00;99.90;;;;;;5042171;28;20461;-60
2024/02/02 05:02:06;;;;;;;17.43;6.33;;;5.00;99.90;;;;;;5043619;28;20419;-60
2024/02/02 05:04:32;;;;;;;10.47;5.30;;;5.00;99.90;;;;;;5045115;28;20565;-59
2024/02/02 05:06:58;;;;;;;21.87;5.53;;;5.00;99.90;;;;;;5043230;28;20206;-60
2024/02/02 05:09:23;;;;;;;11.87;6.10;;;5.00;99.90;;;;;;5044294;28;20219;-59
2024/02/02 05:11:49;;;;;;;13.63;6.10;;;5.00;99.90;;;;;;5043832;28;20203;-59
2024/02/02 05:14:14;;;;;;;18.60;5.27;;;5.00;99.90;;;;;;5043718;28;20201;-60
2024/02/02 05:16:40;;;;;;;13.67;4.90;;;5.00;99.90;;;;;;5044649;28;20203;-59
2024/02/02 05:19:06;;;;;;;17.50;5.70;;;5.00;99.90;;;;;;5026869;28;20210;-59
2024/02/02 05:21:32;;;;;;;17.93;4.50;;;5.00;99.90;;;;;;5042561;28;20171;-59
2024/02/02 05:23:58;;;;;;;8.20;5.00;;;5.00;99.90;;;;;;5044172;28;20241;-57
2024/02/02 05:26:23;;;;;;;15.77;6.30;;;5.00;99.90;;;;;;5045244;28;20438;-58
2024/02/02 05:28:49;;;;;;;12.70;5.77;;;5.00;99.90;;;;;;5042255;28;20529;-60
2024/02/02 05:31:15;;;;;;;13.73;5.23;;;5.00;99.90;;;;;;5042377;28;20183;-59
2024/02/02 05:33:43;;;;;;;15.50;5.00;;;5.00;99.90;;;;;;5041535;28;20190;-57
2024/02/02 05:36:09;;;;;;;10.87;5.47;;;5.00;99.90;;;;;;5046242;28;20456;-59
2024/02/02 05:38:36;;;;;;;14.90;5.30;;;5.00;99.90;;;;;;5046501;28;20895;-58
2024/02/02 05:41:03;;;;;;;21.30;6.50;;;5.00;99.90;;;;;;5043976;28;20198;-58
2024/02/02 05:43:28;;;;;;;9.63;5.77;;;5.00;99.90;;;;;;5044889;28;22091;-59
2024/02/02 05:45:54;;;;;;;12.17;5.60;;;5.00;99.90;;;;;;5044460;28;20457;-59
2024/02/02 05:48:20;;;;;;;16.53;6.23;;;5.00;99.90;;;;;;5046035;28;20175;-59
2024/02/02 05:50:47;;;;;;;14.83;5.37;;;5.10;99.90;;;;;;5045632;28;20700;-56
2024/02/02 05:53:13;;;;;;;16.13;7.43;;;5.00;99.90;;;;;;5046644;28;20195;-60
2024/02/02 05:55:39;;;;;;;18.23;9.60;;;5.00;99.90;;;;;;5046538;28;20430;-59
2024/02/02 05:58:05;;;;;;;16.67;7.13;;;5.10;99.90;;;;;;5045204;28;20414;-55
2024/02/02 06:00:31;;;;;;;10.10;5.10;;;5.10;99.90;;;;;;5042669;28;21054;-59
2024/02/02 06:02:56;;;;;;;13.27;7.03;;;5.10;99.90;;;;;;5025430;28;20431;-59
2024/02/02 06:05:22;;;;;;;14.70;4.73;;;5.20;99.90;;;;;;5044228;28;20559;-59
2024/02/02 06:07:47;;;;;;;13.07;7.00;;;5.20;99.90;;;;;;5042994;28;20182;-58
2024/02/02 06:10:13;;;;;;;12.90;5.80;;;5.20;99.90;;;;;;5043400;28;20567;-59
2024/02/02 06:12:39;;;;;;;12.70;5.73;;;5.20;99.90;;;;;;5042144;28;20182;-59
2024/02/02 06:15:06;;;;;;;12.33;4.50;;;5.20;99.90;;;;;;5043064;28;20227;-58
2024/02/02 06:17:32;;;;;;;13.03;5.57;;;5.40;99.90;;;;;;5042925;28;20179;-59
2024/02/02 06:19:58;;;;;;;12.53;4.80;;;5.50;99.90;;;;;;5044882;28;20449;-59
2024/02/02 06:22:24;;;;;;;12.17;5.03;;;5.50;99.90;;;;;;5026882;28;20641;-60
2024/02/02 06:24:49;;;;;;;25.03;5.83;;;5.50;99.90;;;;;;5045732;28;20801;-58
2024/02/02 06:27:15;;;;;;;13.03;5.47;;;5.40;99.90;;;;;;5046136;28;20538;-59
2024/02/02 06:29:41;;;;;;;20.57;6.70;;;5.50;99.90;;;;;;5043190;28;20191;-58
2024/02/02 06:32:07;;;;;;;16.13;5.67;;;5.40;99.90;;;;;;5043945;28;20174;-60
2024/02/02 06:34:32;;;;;;;10.60;5.10;;;5.40;99.90;;;;;;5042193;28;20505;-58
2024/02/02 06:36:58;;;;;;;14.40;4.80;;;5.50;99.90;;;;;;5043607;28;20668;-60
2024/02/02 06:39:23;;;;;;;22.20;4.73;;;5.50;99.90;;;;;;5044085;28;20192;-59
2024/02/02 06:41:50;;;;;;;14.87;5.13;;;5.60;99.90;;;;;;5041932;28;20172;-59
2024/02/02 06:44:16;;;;;;;12.83;4.57;;;5.50;99.90;;;;;;5027461;28;20522;-60
2024/02/02 06:46:42;;;;;;;12.10;4.70;;;5.50;99.90;;;;;;5043085;28;20446;-58
2024/02/02 06:49:08;;;;;;;10.93;4.70;;;5.50;99.90;;;;;;5039117;28;20414;-56
2024/02/02 06:51:33;;;;;;;16.30;4.80;;;5.50;99.90;;;;;;5043447;28;20451;-59
2024/02/02 06:53:59;;;;;;;19.57;5.37;;;5.50;99.90;;;;;;5042329;28;20186;-59
2024/02/02 06:56:45;;;;;;;16.20;4.53;;;5.50;99.90;;;;;;5039552;28;20197;-59
2024/02/02 06:59:11;;;;;;;15.93;4.87;;;5.60;99.90;;;;;;5038975;28;20176;-59
2024/02/02 07:01:38;;;;;;;15.50;5.47;;;5.80;99.90;;;;;;5041056;28;20418;-59
2024/02/02 07:04:08;;;;;;;15.77;5.33;;;5.80;99.90;;;;;;5040873;28;20427;-58
2024/02/02 07:06:35;;;;;;;7.07;3.97;;;5.90;99.90;;;;;;5041138;28;20477;-59
2024/02/02 07:09:19;;;;;;;15.10;6.13;;;5.90;99.90;;;;;;5044050;28;20418;-59
2024/02/02 07:11:58;;;;;;;14.63;4.67;;;5.70;99.90;;;;;;5044361;28;20415;-61
2024/02/02 07:14:47;;;;;;;14.90;5.57;;;5.60;99.90;;;;;;5043486;28;20410;-61
2024/02/02 07:17:19;;;;;;;15.33;5.33;;;5.40;99.90;;;;;;5046540;28;20817;-60
2024/02/02 07:19:45;;;;;;;13.57;4.70;;;5.40;99.90;;;;;;5044551;28;20459;-58
2024/02/02 07:22:36;;;;;;;11.00;5.40;;;5.40;99.90;;;;;;5044945;28;20636;-58
2024/02/02 07:25:05;;;;;;;11.50;4.10;;;5.30;99.90;;;;;;5026743;28;20200;-59
2024/02/02 07:27:49;;;;;;;12.43;4.30;;;5.40;99.90;;;;;;5045943;28;20414;-58
2024/02/02 07:30:38;;;;;;;12.50;3.80;;;5.40;99.90;;;;;;5043968;28;20427;-60
2024/02/02 07:33:20;;;;;;;10.80;4.70;;;5.40;99.90;;;;;;5029463;28;20438;-60
2024/02/02 07:35:46;;;;;;;9.00;6.00;;;5.40;99.90;;;;;;5043464;28;20845;-59
2024/02/02 07:38:38;;;;;;;13.67;4.73;;;5.50;99.90;;;;;;5041865;28;20510;-58
2024/02/02 07:41:08;;;;;;;18.77;6.70;;;5.60;99.90;;;;;;5043294;28;20200;-59
2024/02/02 07:43:34;;;;;;;14.00;4.20;;;5.60;99.90;;;;;;5046088;28;20423;-59
2024/02/02 07:46:03;;;;;;;10.40;4.77;;;5.70;99.90;;;;;;5043868;28;20461;-60
2024/02/02 07:48:29;;;;;;;9.10;5.00;;;5.70;99.90;;;;;;5043045;28;20458;-59
2024/02/02 07:50:55;;;;;;;9.87;5.27;;;5.70;99.90;;;;;;5045125;28;20429;-59
2024/02/02 07:53:22;;;;;;;15.60;3.63;;;5.90;99.90;;;;;;5044392;28;21016;-58
2024/02/02 07:55:48;;;;;;;14.00;4.60;;;5.80;99.90;;;;;;5044019;28;20815;-60
2024/02/02 07:58:14;;;;;;;19.17;6.37;;;5.80;99.90;;;;;;5043157;28;20419;-60
2024/02/02 08:00:39;;;;;;;15.70;5.17;;;5.80;99.90;;;;;;5043114;28;20205;-59
2024/02/02 08:03:07;;;;;;;7.90;4.70;;;6.00;99.90;;;;;;5045044;28;20989;-60
2024/02/02 08:05:37;;;;;;;9.40;4.37;;;6.10;99.90;;;;;;5044373;28;20750;-61
2024/02/02 08:08:06;;;;;;;10.17;4.57;;;5.90;99.90;;;;;;5044698;28;20837;-60
2024/02/02 08:10:32;;;;;;;19.10;4.67;;;5.90;99.90;;;;;;5046138;28;20916;-60
2024/02/02 08:12:57;;;;;;;11.13;4.80;;;5.90;99.90;;;;;;5025947;28;20473;-58
2024/02/02 08:15:24;;;;;;;13.80;5.23;;;5.90;99.90;;;;;;5044037;28;20197;-59
2024/02/02 08:17:50;;;;;;;10.77;4.50;;;5.90;99.90;;;;;;5042474;28;20180;-60
2024/02/02 08:20:16;;;;;;;18.03;5.90;;;6.00;99.90;;;;;;5041514;28;20455;-61
2024/02/02 08:22:43;;;;;;;11.53;5.90;;;5.80;99.90;;;;;;5043493;28;20443;-60
2024/02/02 08:25:10;;;;;;;17.53;5.43;;;5.80;99.90;;;;;;5044238;28;20442;-59
2024/02/02 08:27:35;;;;;;;10.07;5.60;;;5.80;99.90;;;;;;5043472;28;20406;-60
2024/02/02 08:30:01;;;;;;;15.93;5.27;;;5.90;99.90;;;;;;5043239;28;20434;-60
2024/02/02 08:32:27;;;;;;;13.90;5.57;;;5.90;99.90;;;;;;5045018;28;20430;-60
2024/02/02 08:34:53;;;;;;;13.00;5.17;;;5.90;99.90;;;;;;5047428;28;20418;-60
2024/02/02 08:37:19;;;;;;;7.90;5.30;;;6.00;99.90;;;;;;5042522;28;20220;-61
2024/02/02 08:39:45;;;;;;;18.53;4.60;;;6.10;99.90;;;;;;5045700;28;20278;-59
2024/02/02 08:42:21;;;;;;;10.33;4.20;;;6.20;99.90;;;;;;5046431;28;20417;-58
2024/02/02 08:44:47;;;;;;;12.00;4.67;;;6.30;99.90;;;;;;5045908;28;20426;-59
2024/02/02 08:47:13;;;;;;;12.53;4.20;;;6.40;99.90;;;;;;5045406;28;20426;-58
2024/02/02 08:49:59;;;;;;;12.40;6.77;;;6.40;99.90;;;;;;5047087;28;20414;-59
2024/02/02 08:52:28;;;;;;;15.33;5.33;;;6.60;99.90;;;;;;5045099;28;20179;-60
2024/02/02 08:54:54;;;;;;;10.33;5.07;;;6.70;99.90;;;;;;5042393;28;20442;-60
2024/02/02 08:57:58;;;;;;;12.47;5.40;;;6.70;99.90;;;;;;5046001;28;20431;-59
2024/02/02 09:00:40;;;;;;;15.63;5.53;;;6.60;99.90;;;;;;5009209;28;20220;-57
2024/02/02 09:03:24;;;;;;;11.37;4.60;;;6.50;99.90;;;;;;5042990;28;20417;-60
2024/02/02 09:05:51;;;;;;;14.53;4.73;;;6.60;99.90;;;;;;5023706;28;20962;-61
2024/02/02 09:08:16;;;;;;;11.50;5.47;;;6.70;99.90;;;;;;5052265;28;20412;-59
2024/02/02 09:10:43;;;;;;;11.60;5.60;;;6.70;99.90;;;;;;5048528;28;20436;-60
2024/02/02 09:13:15;;;;;;;12.23;6.00;;;6.70;99.90;;;;;;5052133;28;20204;-59
2024/02/02 09:15:41;;;;;;;6.67;4.77;;;6.60;99.90;;;;;;5050205;28;20458;-58
2024/02/02 09:18:10;;;;;;;8.43;7.07;;;6.60;99.90;;;;;;5032240;28;20436;-59
2024/02/02 09:20:43;;;;;;;12.43;6.47;;;6.60;99.90;;;;;;5052335;28;20254;-62
2024/02/02 09:23:09;;;;;;;16.17;5.77;;;6.60;99.90;;;;;;5046451;28;20440;-57
2024/02/02 09:25:43;;;;;;;14.53;6.10;;;6.60;99.90;;;;;;5045795;28;20536;-58
2024/02/02 09:28:39;;;;;;;13.73;5.93;;;6.60;99.90;;;;;;5050915;28;20838;-60
2024/02/02 09:31:09;;;;;;;11.43;7.13;;;6.60;99.90;;;;;;5026601;28;20522;-61
2024/02/02 09:33:47;;;;;;;12.40;5.97;;;6.60;99.90;;;;;;5030266;28;21066;-59
2024/02/02 09:36:14;;;;;;;9.97;6.77;;;6.60;99.90;;;;;;5049086;28;20438;-63
2024/02/02 09:38:54;;;;;;;10.17;6.40;;;6.60;99.90;;;;;;5048932;28;20437;-65
2024/02/02 09:41:34;;;;;;;10.60;5.97;;;6.60;99.90;;;;;;5042116;28;20455;-66
2024/02/02 09:44:26;;;;;;;11.93;7.23;;;6.50;99.90;;;;;;5050211;28;20416;-62
2024/02/02 09:46:59;;;;;;;13.20;6.43;;;6.60;99.90;;;;;;5035565;28;20462;-60
2024/02/02 09:49:36;;;;;;;14.23;6.10;;;6.70;99.90;;;;;;5051111;28;20447;-59
2024/02/02 09:52:30;;;;;;;12.97;7.00;;;6.60;99.90;;;;;;5048355;28;20468;-60
2024/02/02 09:55:17;;;;;;;11.10;6.17;;;6.60;99.90;;;;;;5047366;28;20827;-61
2024/02/02 09:57:49;;;;;;;14.43;6.83;;;6.60;99.90;;;;;;5047149;28;20411;-60
2024/02/02 10:00:48;;;;;;;17.30;6.27;;;6.50;99.90;;;;;;5022726;28;20973;-60
2024/02/02 10:03:26;;;;;;;10.60;5.77;;;6.50;99.90;;;;;;5044655;28;20427;-60
2024/02/02 10:06:10;;;;;;;6.23;5.43;;;6.60;99.90;;;;;;5048358;28;20421;-59
2024/02/02 10:09:17;;;;;;;13.90;5.60;;;6.70;99.90;;;;;;5056778;22;20481;-63
2024/02/02 10:12:01;;;;;;;10.03;5.70;;;6.80;99.90;;;;;;5003876;28;20520;-62
2024/02/02 10:14:26;;;;;;;18.03;6.13;;;6.90;99.90;;;;;;5008484;28;20439;-63
2024/02/02 10:17:21;;;;;;;12.90;6.10;;;6.60;99.90;;;;;;5006704;28;20429;-64
2024/02/02 10:20:08;;;;;;;14.23;6.80;;;6.70;99.90;;;;;;4993947;28;20229;-62
2024/02/02 10:23:03;;;;;;;11.60;7.13;;;6.80;99.90;;;;;;4999737;28;20757;-64
2024/02/02 10:25:38;;;;;;;13.17;7.07;;;6.90;99.90;;;;;;5003378;28;20452;-62
2024/02/02 10:28:39;;;;;;;11.37;5.40;;;6.90;99.90;;;;;;4988064;28;20436;-63
2024/02/02 10:31:14;;;;;;;6.90;4.07;;;6.90;99.90;;;;;;4979672;28;20430;-64
2024/02/02 10:33:50;;;;;;;10.10;5.50;;;6.90;99.90;;;;;;4983873;28;20856;-63
2024/02/02 10:36:21;;;;;;;9.70;5.40;;;6.90;99.90;;;;;;4990241;28;20518;-63
2024/02/02 10:38:59;;;;;;;12.50;5.17;;;7.10;99.90;;;;;;4990490;28;20896;-63
2024/02/02 10:42:02;;;;;;;10.50;5.10;;;7.10;99.90;;;;;;4990104;28;20466;-63
2024/02/02 10:44:55;;;;;;;6.00;5.23;;;7.20;99.90;;;;;;4991843;28;20480;-63
2024/02/02 10:47:35;;;;;;;8.17;3.90;;;7.40;99.90;;;;;;4993777;28;20521;-64
2024/02/02 10:50:21;;;;;;;12.00;3.83;;;7.40;99.90;;;;;;4991870;28;20470;-64
2024/02/02 10:52:55;;;;;;;9.23;4.00;;;7.30;99.90;;;;;;4988188;28;20430;-64
2024/02/02 10:55:56;;;;;;;7.17;4.50;;;7.50;99.90;;;;;;4992414;28;20431;-61
2024/02/02 10:59:03;;;;;;;12.50;3.33;;;7.50;99.90;;;;;;4993938;28;20532;-63
2024/02/02 11:01:53;;;;;;;12.70;3.97;;;7.40;99.90;;;;;;4993841;28;20876;-63
2024/02/02 11:04:34;;;;;;;12.63;4.27;;;7.40;99.90;;;;;;4993520;28;20416;-63
2024/02/02 11:07:21;;;;;;;6.17;2.80;;;7.40;99.90;;;;;;4994022;28;20419;-62
2024/02/02 11:09:46;;;;;;;11.23;3.63;;;7.40;99.90;;;;;;4989559;28;20453;-63
2024/02/02 11:12:20;;;;;;;4.80;2.77;;;7.40;99.90;;;;;;4991475;28;20521;-62
2024/02/02 11:14:54;;;;;;;8.10;3.53;;;7.50;99.90;;;;;;4993804;28;20265;-63
2024/02/02 11:17:30;;;;;;;7.03;3.53;;;7.40;99.90;;;;;;4991442;28;20960;-63
2024/02/02 11:20:25;;;;;;;10.90;3.60;;;7.50;99.90;;;;;;4993439;28;20933;-64
2024/02/02 11:23:00;;;;;;;8.40;3.70;;;7.70;99.90;;;;;;4989006;28;20854;-63
2024/02/02 11:25:47;;;;;;;7.13;3.20;;;7.60;99.90;;;;;;4993473;28;20457;-64
2024/02/02 11:28:48;;;;;;;8.53;2.90;;;7.70;99.90;;;;;;4981701;28;20433;-63
2024/02/02 11:31:13;;;;;;;8.90;3.10;;;7.70;99.90;;;;;;4989972;28;20429;-63
2024/02/02 11:33:50;;;;;;;9.43;3.37;;;7.80;99.90;;;;;;4993395;28;20416;-63
2024/02/02 11:36:57;;;;;;;8.33;3.17;;;7.80;99.90;;;;;;4993190;28;20191;-65
2024/02/02 11:39:56;;;;;;;5.43;3.30;;;7.60;99.90;;;;;;4992962;28;20443;-64
2024/02/02 11:42:24;;;;;;;7.33;3.80;;;7.80;99.90;;;;;;4993528;28;20422;-62
2024/02/02 11:44:57;;;;;;;4.43;3.63;;;7.80;99.90;;;;;;4989938;28;20436;-61
2024/02/02 11:47:24;;;;;;;6.43;3.80;;;7.80;99.90;;;;;;4992867;28;20429;-65
2024/02/02 11:50:04;;;;;;;9.23;3.47;;;7.90;99.90;;;;;;4990310;28;20980;-61
2024/02/02 11:52:40;;;;;;;7.50;4.07;;;8.00;99.90;;;;;;4992635;28;20439;-63
2024/02/02 11:55:16;;;;;;;4.00;3.20;;;8.00;99.90;;;;;;4989265;28;20441;-65
2024/02/02 11:57:49;;;;;;;3.67;3.20;;;7.90;99.90;;;;;;4991891;28;20798;-63
2024/02/02 12:00:34;;;;;;;7.60;3.43;;;7.80;99.90;;;;;;4991873;28;20509;-61
2024/02/02 12:03:02;;;;;;;10.10;4.10;;;8.10;99.90;;;;;;4992395;28;20758;-63
2024/02/02 12:05:39;;;;;;;13.40;5.00;;;7.90;99.90;;;;;;4992201;28;20872;-62
2024/02/02 12:08:30;;;;;;;10.43;4.70;;;7.80;99.90;;;;;;4990134;28;20438;-62
2024/02/02 12:10:58;;;;;;;14.30;4.07;;;7.70;99.90;;;;;;4992328;28;20420;-63
2024/02/02 12:13:30;;;;;;;7.73;4.23;;;7.80;99.90;;;;;;4994765;28;20523;-64
2024/02/02 12:15:57;;;;;;;11.47;4.33;;;7.80;99.90;;;;;;4993830;28;20423;-62
2024/02/02 12:18:23;;;;;;;9.27;4.40;;;7.70;99.90;;;;;;4989142;28;20475;-63
2024/02/02 12:20:49;;;;;;;7.47;4.00;;;7.60;99.90;;;;;;4991938;28;20938;-62
2024/02/02 12:23:15;;;;;;;9.20;4.33;;;7.60;99.90;;;;;;4991892;28;20493;-62
2024/02/02 12:25:41;;;;;;;11.33;4.33;;;7.60;99.90;;;;;;4991854;28;20182;-63
2024/02/02 12:28:08;;;;;;;10.17;3.60;;;7.60;99.90;;;;;;4991639;28;20441;-63
2024/02/02 12:30:33;;;;;;;4.60;3.13;;;7.60;99.90;;;;;;4988692;28;20324;-63
2024/02/02 12:33:02;;;;;;;8.13;3.30;;;7.70;99.90;;;;;;4991571;28;20445;-63
2024/02/02 12:35:28;;;;;;;9.67;3.83;;;7.70;99.90;;;;;;4991167;28;20196;-63
2024/02/02 12:37:55;;;;;;;6.70;3.83;;;7.90;99.90;;;;;;4991450;28;20531;-62
2024/02/02 12:40:22;;;;;;;7.53;5.33;;;7.80;99.90;;;;;;4985265;28;20888;-63
2024/02/02 12:42:48;;;;;;;7.10;4.00;;;7.70;99.90;;;;;;4982745;28;20521;-63
2024/02/02 12:45:14;;;;;;;10.30;3.93;;;7.70;99.90;;;;;;4999968;28;20437;-63
2024/02/02 12:47:41;;;;;;;7.43;4.07;;;7.50;99.90;;;;;;4998844;28;20908;-61
2024/02/02 12:50:20;;;;;;;5.30;3.40;;;7.50;99.90;;;;;;5002815;28;20476;-64
2024/02/02 12:52:50;;;;;;;6.43;4.27;;;7.40;99.90;;;;;;5001755;28;20426;-63
2024/02/02 12:55:18;;;;;;;7.23;4.17;;;7.40;99.90;;;;;;5004834;28;20581;-63
2024/02/02 12:57:44;;;;;;;11.73;4.30;;;7.30;99.90;;;;;;4991890;28;20594;-63
2024/02/02 13:00:19;;;;;;;7.00;4.60;;;7.40;99.90;;;;;;5002152;28;20568;-63
2024/02/02 13:02:45;;;;;;;6.20;3.43;;;7.50;99.90;;;;;;4999755;28;20419;-64
2024/02/02 13:05:18;;;;;;;16.30;4.90;;;7.40;99.90;;;;;;5002565;28;20428;-64